Time;durP1;ratioP1;P1;durP2;ratioP2;P2;SDS_P1;SDS_P2;PMS_P1;PMS_P2;Temp;Humidity;BMP_temperature;BMP_pressure;BME280_temperature;BME280_humidity;BME280_pressure;Samples;Min_cycle;Max_cycle;Signal;HPM_P1;HPM_P2
2022/04/30 00:01:01;;;;;;;4.77;3.77;;;6.60;99.90;6.80;97463.00;;;;4954974;29;20698;-71
2022/04/30 00:03:30;;;;;;;7.50;3.90;;;6.50;99.90;6.20;97452.00;;;;4955272;29;20754;-72
2022/04/30 00:05:59;;;;;;;10.03;4.37;;;6.40;99.90;6.40;97465.00;;;;4954899;29;20745;-72
2022/04/30 00:08:28;;;;;;;6.20;4.20;;;6.30;99.90;6.80;97454.00;;;;4947301;29;20676;-72
2022/04/30 00:10:57;;;;;;;5.27;4.00;;;6.30;99.90;6.90;97453.00;;;;4952518;29;20232;-72
2022/04/30 00:13:27;;;;;;;5.93;4.47;;;6.30;99.90;6.60;97453.00;;;;4936027;29;20223;-71
2022/04/30 00:15:55;;;;;;;4.90;4.17;;;6.30;99.90;6.40;97450.00;;;;4935508;29;20216;-74
2022/04/30 00:18:25;;;;;;;5.00;4.43;;;6.90;99.90;6.60;97449.00;;;;4939006;29;20255;-73
2022/04/30 00:20:53;;;;;;;6.13;4.43;;;6.20;99.90;6.90;97453.00;;;;4954163;29;20258;-72
2022/04/30 00:23:22;;;;;;;5.67;4.50;;;6.20;99.90;7.10;97453.00;;;;4954877;29;20203;-73
2022/04/30 00:25:53;;;;;;;5.73;4.30;;;6.30;99.90;7.10;97458.00;;;;4954459;29;20204;-73
2022/04/30 00:28:25;;;;;;;5.07;4.50;;;6.40;99.90;6.90;97447.00;;;;4954355;29;20361;-73
2022/04/30 00:30:55;;;;;;;6.10;4.00;;;6.40;99.90;6.50;97439.00;;;;4954539;29;20196;-73
2022/04/30 00:33:24;;;;;;;4.60;4.13;;;6.30;99.90;6.30;97427.00;;;;4942610;29;20207;-72
2022/04/30 00:35:53;;;;;;;9.37;4.07;;;6.20;99.90;6.40;97445.00;;;;4935173;29;20228;-72
2022/04/30 00:38:22;;;;;;;4.43;4.03;;;6.10;99.90;6.60;97442.00;;;;4934966;29;20205;-72
2022/04/30 00:40:51;;;;;;;9.53;4.17;;;6.10;99.90;6.60;97447.00;;;;4935473;29;20197;-72
2022/04/30 00:43:20;;;;;;;4.53;3.93;;;6.10;99.90;6.60;97442.00;;;;4935267;29;20279;-73
2022/04/30 00:45:49;;;;;;;3.97;3.60;;;6.10;99.90;6.60;97438.00;;;;4945989;29;20208;-73
2022/04/30 00:48:19;;;;;;;5.37;3.87;;;6.10;99.90;6.50;97433.00;;;;4945698;29;20262;-72
2022/04/30 00:50:49;;;;;;;5.87;4.00;;;6.10;99.90;6.30;97424.00;;;;4935032;29;20200;-72
2022/04/30 00:53:19;;;;;;;6.03;4.67;;;6.10;99.90;6.10;97417.00;;;;4935163;29;20252;-72
2022/04/30 00:55:49;;;;;;;4.57;4.17;;;6.00;99.90;5.90;97427.00;;;;4939177;29;20219;-73
2022/04/30 00:58:21;;;;;;;6.53;4.10;;;5.80;99.90;5.60;97420.00;;;;4952979;28;20247;-73
2022/04/30 01:00:51;;;;;;;4.50;4.10;;;5.70;99.90;5.80;97428.00;;;;4954187;29;20210;-72
2022/04/30 01:03:22;;;;;;;9.50;5.13;;;5.60;99.90;6.00;97427.00;;;;4954074;29;20247;-73
2022/04/30 01:05:51;;;;;;;5.93;4.07;;;5.60;99.90;5.80;97432.00;;;;4953860;29;20207;-71
2022/04/30 01:08:21;;;;;;;6.60;4.83;;;5.70;99.90;6.10;97425.00;;;;4954249;28;20200;-72
2022/04/30 01:10:50;;;;;;;7.20;4.87;;;5.70;99.90;6.20;97420.00;;;;4946166;28;20196;-72
2022/04/30 01:13:20;;;;;;;5.23;4.73;;;5.70;99.90;6.20;97418.00;;;;4934094;29;20200;-72
2022/04/30 01:15:50;;;;;;;4.57;4.17;;;5.80;99.90;6.30;97424.00;;;;4934501;29;20219;-73
2022/04/30 01:18:21;;;;;;;5.37;3.67;;;5.80;99.90;6.30;97422.00;;;;4937145;29;20221;-72
2022/04/30 01:20:53;;;;;;;7.33;4.10;;;5.80;99.90;6.00;97428.00;;;;4965853;23;20290;-70
2022/04/30 01:23:24;;;;;;;3.83;3.47;;;5.80;99.90;5.60;97424.00;;;;4952650;29;20291;-70
2022/04/30 01:25:53;;;;;;;6.37;4.40;;;5.60;99.90;5.60;97420.00;;;;4953080;29;20204;-70
2022/04/30 01:28:22;;;;;;;6.57;4.10;;;5.60;99.90;5.70;97416.00;;;;4953317;29;20238;-70
2022/04/30 01:30:51;;;;;;;5.13;4.53;;;5.50;99.90;5.70;97411.00;;;;4953310;29;20224;-69
2022/04/30 01:39:01;;;;;;;6.17;5.03;;;5.40;99.90;5.80;97411.00;;;;4914247;29;20220;-70
2022/04/30 01:41:30;;;;;;;7.93;4.47;;;5.50;99.90;5.90;97405.00;;;;4953061;29;20223;-70
2022/04/30 01:43:59;;;;;;;14.43;4.43;;;5.50;99.90;5.40;97398.00;;;;4952949;29;20502;-70
2022/04/30 01:46:28;;;;;;;4.77;4.10;;;5.40;99.90;5.40;97389.00;;;;4947879;29;20204;-70
2022/04/30 01:48:57;;;;;;;6.23;4.80;;;5.30;99.90;5.60;97394.00;;;;4952510;29;20191;-70
2022/04/30 01:51:25;;;;;;;4.87;4.37;;;5.30;99.90;5.90;97389.00;;;;4952776;29;20436;-70
2022/04/30 01:53:54;;;;;;;7.67;4.60;;;5.40;99.90;5.90;97395.00;;;;4953312;29;20279;-70
2022/04/30 01:56:24;;;;;;;6.80;5.17;;;5.40;99.90;5.90;97388.00;;;;4950314;29;20570;-70
2022/04/30 01:58:52;;;;;;;4.23;3.90;;;5.40;99.90;5.80;97375.00;;;;4933534;29;20206;-70
2022/04/30 02:01:21;;;;;;;4.80;4.33;;;5.40;99.90;5.80;97374.00;;;;4936179;29;20196;-70
2022/04/30 02:03:49;;;;;;;5.57;5.00;;;5.40;99.90;5.80;97379.00;;;;4953147;29;20220;-70
2022/04/30 02:06:20;;;;;;;4.83;3.73;;;5.40;99.90;5.40;97380.00;;;;4952608;29;20208;-69
2022/04/30 02:08:49;;;;;;;5.87;4.60;;;5.30;99.90;4.70;97377.00;;;;4956926;28;20188;-70
2022/04/30 02:11:18;;;;;;;4.30;3.90;;;5.10;99.90;4.40;97372.00;;;;4935163;28;20224;-70
2022/04/30 02:13:53;;;;;;;5.47;3.87;;;4.90;99.90;4.70;97368.00;;;;4933847;29;20196;-70
2022/04/30 02:16:23;;;;;;;5.37;4.67;;;4.70;99.90;4.90;97376.00;;;;4933369;29;20467;-70
2022/04/30 02:18:52;;;;;;;4.90;4.50;;;4.70;99.90;5.00;97369.00;;;;4940541;29;20443;-69
2022/04/30 02:21:23;;;;;;;6.93;4.23;;;4.70;99.90;4.90;97366.00;;;;4952119;29;20446;-70
2022/04/30 02:23:57;;;;;;;6.00;4.40;;;4.70;99.90;4.80;97368.00;;;;4952597;29;20436;-68
2022/04/30 02:26:27;;;;;;;7.50;4.13;;;4.70;99.90;5.00;97356.00;;;;4951911;29;20450;-70
2022/04/30 02:28:57;;;;;;;5.23;3.97;;;4.60;99.90;4.80;97354.00;;;;4951968;29;20490;-70
2022/04/30 02:31:28;;;;;;;6.90;4.57;;;4.70;99.90;5.00;97348.00;;;;4951999;29;20442;-70
2022/04/30 02:33:57;;;;;;;4.43;4.03;;;4.70;99.90;5.00;97353.00;;;;4935586;29;20483;-70
2022/04/30 02:36:27;;;;;;;5.03;4.57;;;4.70;99.90;4.90;97351.00;;;;4932968;29;20484;-70
2022/04/30 02:38:59;;;;;;;4.90;4.27;;;4.60;99.90;4.80;97352.00;;;;4932862;29;20440;-70
2022/04/30 02:41:28;;;;;;;4.33;3.93;;;4.60;99.90;4.60;97353.00;;;;4933125;29;20469;-70
2022/04/30 02:43:59;;;;;;;5.93;4.07;;;4.50;99.90;4.30;97352.00;;;;4933920;29;20437;-70
2022/04/30 02:46:29;;;;;;;5.53;3.97;;;4.50;99.90;4.40;97349.00;;;;4946111;29;20440;-70
2022/04/30 02:48:58;;;;;;;6.53;4.50;;;4.40;99.90;4.30;97345.00;;;;4937977;29;20437;-70
2022/04/30 02:51:27;;;;;;;6.63;4.70;;;4.30;99.90;4.30;97346.00;;;;4932679;29;20537;-69
2022/04/30 02:53:55;;;;;;;4.47;3.90;;;4.20;99.90;4.20;97336.00;;;;4932898;29;20464;-69
2022/04/30 02:56:24;;;;;;;6.40;4.23;;;4.30;99.90;4.50;97343.00;;;;4941664;29;20522;-70
2022/04/30 03:01:51;;;;;;;7.83;4.30;;;4.10;99.90;4.20;97328.00;;;;4911080;29;20526;-70
2022/04/30 03:04:20;;;;;;;4.07;3.57;;;4.70;99.90;4.20;97332.00;;;;4942934;29;20542;-70
2022/04/30 03:06:49;;;;;;;6.13;4.80;;;4.30;99.90;4.00;97326.00;;;;4950045;29;20456;-70
2022/04/30 03:09:18;;;;;;;4.70;4.30;;;4.50;99.90;4.00;97324.00;;;;4956357;28;20487;-69
2022/04/30 03:11:47;;;;;;;4.77;4.33;;;4.10;99.90;4.50;97333.00;;;;4951653;29;20495;-70
2022/04/30 03:14:16;;;;;;;8.97;5.20;;;4.70;99.90;4.50;97326.00;;;;4951873;29;20447;-70
2022/04/30 03:22:17;;;;;;;5.03;4.50;;;4.40;99.90;4.40;97324.00;;;;4951147;29;20443;-70
2022/04/30 03:24:46;;;;;;;5.20;4.10;;;4.10;99.90;4.30;97318.00;;;;4951479;29;20446;-70
2022/04/30 03:27:17;;;;;;;5.33;4.83;;;4.30;99.90;4.20;97309.00;;;;4951155;29;20479;-70
2022/04/30 03:29:46;;;;;;;6.30;4.20;;;4.10;99.90;4.30;97311.00;;;;4951444;29;20462;-70
2022/04/30 03:32:15;;;;;;;5.00;4.40;;;4.40;99.90;4.10;97309.00;;;;4947338;29;20499;-70
2022/04/30 03:34:44;;;;;;;6.93;4.37;;;4.10;99.90;4.00;97311.00;;;;4932361;29;20523;-70
2022/04/30 03:37:14;;;;;;;5.90;4.37;;;4.20;99.90;3.90;97311.00;;;;4931932;29;20473;-70
2022/04/30 03:39:42;;;;;;;4.73;4.27;;;4.10;99.90;3.80;97314.00;;;;4932132;29;20460;-70
2022/04/30 03:42:11;;;;;;;4.40;3.83;;;4.00;99.90;3.60;97302.00;;;;4932028;29;20472;-70
2022/04/30 03:44:39;;;;;;;9.27;4.60;;;3.90;99.90;3.80;97317.00;;;;4939011;29;20428;-70
2022/04/30 03:47:08;;;;;;;5.33;4.87;;;3.80;99.90;3.70;97299.00;;;;4949702;29;20444;-70
2022/04/30 03:49:37;;;;;;;5.33;4.40;;;3.60;99.90;3.50;97305.00;;;;4938185;29;20460;-70
2022/04/30 03:52:11;;;;;;;4.53;4.13;;;3.90;99.90;3.80;97307.00;;;;4932170;29;20682;-69
2022/04/30 03:54:40;;;;;;;5.57;4.93;;;3.90;99.90;3.80;97303.00;;;;4932407;29;20455;-70
2022/04/30 03:57:09;;;;;;;14.40;9.97;;;3.80;99.90;4.00;97298.00;;;;4947199;29;20511;-70
2022/04/30 03:59:37;;;;;;;8.97;6.27;;;3.90;99.90;4.00;97312.00;;;;4951347;29;20681;-69
2022/04/30 04:02:06;;;;;;;14.23;8.50;;;3.50;99.90;3.80;97306.00;;;;4950813;29;20447;-69
2022/04/30 04:04:35;;;;;;;5.07;4.50;;;3.80;99.90;3.60;97302.00;;;;4951311;29;20527;-70
2022/04/30 04:07:05;;;;;;;7.27;4.83;;;3.50;99.90;3.90;97313.00;;;;4950373;29;20432;-70
2022/04/30 04:09:34;;;;;;;6.47;4.43;;;3.50;99.90;3.80;97305.00;;;;4954137;28;20461;-70
2022/04/30 04:12:03;;;;;;;6.93;4.47;;;4.00;99.90;3.50;97314.00;;;;4931087;29;20437;-69
2022/04/30 04:20:05;;;;;;;5.20;4.70;;;3.90;99.90;4.10;97313.00;;;;4949006;29;20499;-70
2022/04/30 04:22:36;;;;;;;6.73;4.80;;;3.60;99.90;3.90;97308.00;;;;4950970;29;20450;-70
2022/04/30 04:27:55;;;;;;;6.43;5.17;;;3.60;99.90;4.20;97317.00;;;;4950511;29;20435;-70
2022/04/30 04:30:25;;;;;;;4.67;4.33;;;3.60;99.90;4.00;97321.00;;;;4951040;29;20460;-70
2022/04/30 04:32:53;;;;;;;6.20;5.57;;;3.80;99.90;4.10;97317.00;;;;4942637;29;20440;-70
2022/04/30 04:35:23;;;;;;;4.60;4.20;;;3.90;99.90;4.10;97316.00;;;;4935149;29;20432;-70
2022/04/30 04:37:53;;;;;;;6.23;5.50;;;3.80;99.90;4.30;97317.00;;;;4934908;29;20504;-70
2022/04/30 04:40:22;;;;;;;5.07;4.57;;;3.90;99.90;4.40;97325.00;;;;4934871;29;20467;-70
2022/04/30 04:42:50;;;;;;;5.17;4.50;;;3.80;99.90;4.60;97328.00;;;;4935341;29;20439;-70
2022/04/30 04:45:22;;;;;;;5.57;4.20;;;4.00;99.90;4.80;97326.00;;;;4942527;29;20468;-70
2022/04/30 04:47:51;;;;;;;6.10;5.47;;;4.10;99.90;4.90;97320.00;;;;4938603;29;20442;-70
2022/04/30 04:50:23;;;;;;;6.33;4.43;;;4.20;99.90;4.80;97309.00;;;;4953481;28;20477;-70
2022/04/30 04:52:55;;;;;;;7.00;5.37;;;4.30;99.90;4.90;97313.00;;;;4952826;29;20435;-70
2022/04/30 04:55:24;;;;;;;5.23;4.80;;;4.40;99.90;5.10;97315.00;;;;4946294;29;20436;-70
2022/04/30 04:57:52;;;;;;;4.80;4.30;;;4.50;99.90;5.30;97307.00;;;;4953177;29;20475;-70
2022/04/30 05:00:22;;;;;;;5.00;4.60;;;4.70;99.90;5.40;97319.00;;;;4953512;29;20452;-70
2022/04/30 05:02:53;;;;;;;6.87;5.40;;;4.70;99.90;5.50;97313.00;;;;4952741;29;20531;-70
2022/04/30 05:05:22;;;;;;;5.23;4.70;;;4.80;99.90;5.70;97312.00;;;;4948440;28;20462;-70
2022/04/30 05:07:50;;;;;;;7.80;5.10;;;4.90;99.90;5.50;97317.00;;;;4949652;28;20539;-70
2022/04/30 05:10:20;;;;;;;9.97;4.87;;;5.10;99.90;5.50;97313.00;;;;4954592;28;20466;-70
2022/04/30 05:12:49;;;;;;;4.73;4.33;;;5.10;99.90;5.60;97310.00;;;;4954273;28;20454;-70
2022/04/30 05:15:18;;;;;;;6.80;4.40;;;5.20;99.90;5.60;97303.00;;;;4954966;28;20472;-70
2022/04/30 05:17:46;;;;;;;10.93;4.40;;;5.30;99.90;5.60;97307.00;;;;4955634;28;20503;-70
2022/04/30 05:20:14;;;;;;;5.50;4.60;;;5.30;99.90;6.00;97308.00;;;;4953233;29;20487;-70
2022/04/30 05:22:56;;;;;;;6.43;5.00;;;5.40;99.90;6.00;97306.00;;;;4953686;29;20475;-72
2022/04/30 05:25:26;;;;;;;4.77;4.37;;;5.50;99.90;6.10;97302.00;;;;4952859;29;20448;-69
2022/04/30 05:27:54;;;;;;;6.03;5.27;;;5.60;99.90;6.50;97310.00;;;;4951120;29;20204;-70
2022/04/30 05:30:23;;;;;;;6.03;5.27;;;5.70;99.90;6.70;97307.00;;;;4948220;29;20235;-70
2022/04/30 05:32:51;;;;;;;6.87;5.03;;;5.90;99.90;6.80;97306.00;;;;4948228;28;20195;-69
2022/04/30 05:35:20;;;;;;;47.17;31.93;;;6.00;99.90;7.10;97313.00;;;;4944933;29;20531;-70
2022/04/30 05:37:49;;;;;;;34.10;26.80;;;6.20;99.90;7.40;97315.00;;;;4941487;29;20207;-70
2022/04/30 05:40:18;;;;;;;11.63;6.70;;;6.50;99.90;7.70;97323.00;;;;4952683;29;20438;-70
2022/04/30 05:42:48;;;;;;;7.40;6.50;;;6.60;99.90;8.10;97333.00;;;;4946153;29;20196;-70
2022/04/30 05:45:16;;;;;;;12.93;5.33;;;6.90;99.90;8.20;97329.00;;;;4942721;28;20201;-70
2022/04/30 05:47:45;;;;;;;7.17;5.50;;;7.10;99.90;8.40;97327.00;;;;4951835;29;20198;-70
2022/04/30 05:50:13;;;;;;;8.67;5.43;;;7.40;99.90;8.40;97327.00;;;;4934811;29;20221;-69
2022/04/30 05:52:42;;;;;;;10.07;6.37;;;7.50;99.90;8.70;97322.00;;;;4945768;28;20222;-70
2022/04/30 05:55:11;;;;;;;8.13;6.50;;;7.70;99.90;8.80;97332.00;;;;4951383;28;20275;-70
2022/04/30 05:57:41;;;;;;;6.13;5.20;;;7.90;99.90;8.90;97332.00;;;;4949989;29;20203;-70
2022/04/30 06:00:14;;;;;;;8.83;6.27;;;8.00;99.90;9.10;97323.00;;;;4951723;29;20215;-69
2022/04/30 06:02:42;;;;;;;10.00;5.63;;;8.20;99.90;9.20;97323.00;;;;4950843;29;20282;-69
2022/04/30 06:05:12;;;;;;;13.27;6.87;;;8.30;99.90;9.80;97323.00;;;;4951776;29;20203;-69
2022/04/30 06:07:40;;;;;;;9.10;6.83;;;8.50;99.90;10.00;97333.00;;;;4950105;28;20269;-70
2022/04/30 06:10:10;;;;;;;5.93;5.30;;;8.70;99.90;10.50;97330.00;;;;4957780;28;20234;-69
2022/04/30 06:12:38;;;;;;;9.23;5.90;;;9.00;99.90;10.60;97320.00;;;;4947583;29;20227;-70
2022/04/30 06:15:09;;;;;;;6.70;5.83;;;9.20;99.90;11.10;97321.00;;;;4949126;29;20274;-69
2022/04/30 06:17:39;;;;;;;6.80;5.80;;;9.50;99.90;11.40;97319.00;;;;4934652;29;20203;-70
2022/04/30 06:20:10;;;;;;;7.47;5.70;;;9.40;99.90;11.50;97317.00;;;;4951016;28;20310;-70
2022/04/30 06:22:39;;;;;;;6.77;6.07;;;10.00;99.90;11.70;97311.00;;;;4950838;29;20207;-70
2022/04/30 06:25:10;;;;;;;8.50;6.10;;;10.20;99.90;11.90;97322.00;;;;4951678;28;20204;-70
2022/04/30 06:27:39;;;;;;;7.20;5.40;;;10.40;99.90;12.10;97326.00;;;;4949754;29;20210;-70
2022/04/30 06:30:11;;;;;;;7.70;5.50;;;10.70;99.90;12.10;97325.00;;;;4950901;29;20230;-70
2022/04/30 06:32:41;;;;;;;7.47;6.13;;;10.80;99.90;11.90;97323.00;;;;4943661;29;20201;-70
2022/04/30 06:35:10;;;;;;;6.17;5.00;;;10.90;99.90;11.90;97320.00;;;;4956903;28;20195;-70
2022/04/30 06:37:38;;;;;;;7.60;5.37;;;10.90;99.90;11.80;97315.00;;;;4946067;29;20215;-70
2022/04/30 06:40:09;;;;;;;6.30;4.93;;;10.90;99.90;11.90;97324.00;;;;4950856;28;20227;-70
2022/04/30 06:42:41;;;;;;;6.80;5.30;;;11.00;99.90;11.80;97313.00;;;;4949953;29;20275;-69
2022/04/30 06:45:13;;;;;;;9.17;5.30;;;10.90;99.90;12.00;97321.00;;;;4934488;29;20207;-70
2022/04/30 06:47:42;;;;;;;7.47;6.67;;;11.00;99.90;12.10;97314.00;;;;4950626;29;20212;-70
2022/04/30 06:50:11;;;;;;;7.20;6.10;;;11.00;99.90;12.10;97324.00;;;;4951905;29;20234;-70
2022/04/30 06:57:07;;;;;;;7.93;6.40;;;11.10;99.90;11.90;97318.00;;;;4951912;29;20251;-70
2022/04/30 06:58:15;;;;;;;6.93;5.07;;;11.10;99.90;12.30;97310.00;;;;4946820;29;20225;-69
2022/04/30 07:03:32;;;;;;;7.30;5.73;;;11.20;99.90;12.50;97314.00;;;;4944459;29;20631;-70
2022/04/30 07:06:04;;;;;;;10.03;6.30;;;11.30;99.90;12.30;97312.00;;;;4938090;29;20234;-69
2022/04/30 07:08:35;;;;;;;8.23;4.97;;;11.30;99.90;12.30;97308.00;;;;4948001;28;20204;-70
2022/04/30 07:11:04;;;;;;;8.67;5.73;;;11.40;99.90;12.70;97311.00;;;;4947712;28;20271;-69
2022/04/30 07:13:32;;;;;;;9.67;5.63;;;11.50;99.90;12.90;97301.00;;;;4950510;28;20204;-70
2022/04/30 07:16:03;;;;;;;6.53;4.60;;;11.50;99.90;13.10;97310.00;;;;4945220;29;20221;-70
2022/04/30 07:18:33;;;;;;;8.37;4.80;;;11.70;99.90;13.30;97304.00;;;;4950776;29;20195;-70
2022/04/30 07:21:02;;;;;;;5.67;4.87;;;11.90;99.90;13.30;97298.00;;;;4978826;23;20231;-83
2022/04/30 07:23:31;;;;;;;7.77;5.70;;;12.00;99.90;13.50;97302.00;;;;4954383;28;20196;-83
2022/04/30 07:25:59;;;;;;;10.00;6.63;;;12.20;99.90;13.90;97286.00;;;;4952984;29;20204;-81
2022/04/30 07:28:30;;;;;;;6.97;5.70;;;12.30;99.90;14.10;97293.00;;;;4955172;28;20196;-84
2022/04/30 07:30:59;;;;;;;6.73;5.20;;;12.50;99.90;14.10;97299.00;;;;4961613;28;20291;-83
2022/04/30 07:33:27;;;;;;;7.77;5.80;;;12.70;99.90;14.30;97282.00;;;;4956945;28;20247;-81
2022/04/30 07:36:00;;;;;;;8.33;5.73;;;12.90;99.90;14.50;97293.00;;;;4959580;28;20373;-85
2022/04/30 07:38:29;;;;;;;8.23;5.13;;;13.10;99.90;14.70;97289.00;;;;4959729;28;20207;-85
2022/04/30 07:40:57;;;;;;;7.73;5.23;;;13.30;99.90;14.70;97282.00;;;;4954368;28;20220;-85
2022/04/30 07:43:26;;;;;;;7.47;4.50;;;13.40;99.90;14.90;97288.00;;;;4954009;28;20212;-84
2022/04/30 07:45:55;;;;;;;5.43;4.93;;;13.50;99.90;15.10;97288.00;;;;4953532;28;20196;-85
2022/04/30 07:48:24;;;;;;;8.10;5.03;;;13.70;99.90;15.30;97287.00;;;;4953406;28;20204;-84
2022/04/30 07:50:57;;;;;;;5.27;4.67;;;13.80;99.90;15.40;97280.00;;;;4955619;28;20279;-83
2022/04/30 07:53:27;;;;;;;5.13;4.47;;;13.90;99.90;15.70;97274.00;;;;4952496;29;20219;-84
2022/04/30 07:55:56;;;;;;;6.50;4.57;;;14.20;99.90;15.70;97275.00;;;;4955678;28;20200;-83
2022/04/30 07:58:25;;;;;;;5.47;4.97;;;14.30;99.90;15.90;97283.00;;;;4954800;29;20231;-84
2022/04/30 08:00:54;;;;;;;5.07;4.33;;;14.50;99.90;16.20;97284.00;;;;4956157;28;20215;-84
2022/04/30 08:03:22;;;;;;;6.53;4.60;;;14.60;99.90;16.50;97283.00;;;;4952122;28;20228;-83
2022/04/30 08:05:51;;;;;;;5.37;4.23;;;14.80;99.90;16.80;97290.00;;;;4952074;28;20220;-84
2022/04/30 08:08:20;;;;;;;8.00;4.37;;;15.00;99.60;17.00;97280.00;;;;4943617;29;20212;-84
2022/04/30 08:10:50;;;;;;;5.80;4.50;;;15.20;97.10;16.70;97276.00;;;;4957557;28;20227;-83
2022/04/30 08:13:19;;;;;;;7.43;4.57;;;15.40;91.90;16.80;97281.00;;;;4953642;28;20232;-82
2022/04/30 08:15:47;;;;;;;6.47;4.23;;;15.50;89.70;17.30;97270.00;;;;4951497;29;20279;-85
2022/04/30 08:18:16;;;;;;;5.67;4.30;;;15.60;90.30;17.50;97276.00;;;;4954310;28;20263;-85
2022/04/30 08:20:46;;;;;;;7.97;4.70;;;15.80;86.00;17.70;97265.00;;;;4950359;28;20222;-82
2022/04/30 08:23:15;;;;;;;5.97;4.27;;;15.90;85.00;17.70;97271.00;;;;4953016;28;20227;-82
2022/04/30 08:25:43;;;;;;;8.40;4.13;;;16.10;83.60;18.00;97273.00;;;;4957969;29;20192;-83
2022/04/30 08:28:15;;;;;;;6.20;4.07;;;16.30;83.10;17.10;97259.00;;;;4956591;28;20184;-84
2022/04/30 08:30:43;;;;;;;5.80;5.03;;;16.30;75.90;16.50;97260.00;;;;4958492;28;20196;-86
2022/04/30 08:33:12;;;;;;;10.73;5.03;;;16.10;75.00;17.50;97270.00;;;;4948660;28;20220;-82
2022/04/30 08:35:41;;;;;;;6.93;5.80;;;16.20;78.70;17.80;97269.00;;;;4953867;28;20208;-84
2022/04/30 08:38:10;;;;;;;8.40;4.57;;;16.30;79.20;17.40;97272.00;;;;4948227;28;20227;-83
2022/04/30 08:40:42;;;;;;;10.23;5.57;;;16.40;75.40;17.60;97270.00;;;;4954914;28;20215;-83
2022/04/30 08:43:16;;;;;;;7.07;4.83;;;16.50;73.00;18.20;97267.00;;;;4961575;28;20297;-84
2022/04/30 08:45:46;;;;;;;5.67;5.00;;;16.60;74.90;17.90;97264.00;;;;4958961;28;20211;-81
2022/04/30 08:48:17;;;;;;;6.23;5.07;;;16.70;73.30;17.50;97248.00;;;;4958466;28;20223;-84
2022/04/30 08:50:48;;;;;;;6.70;4.73;;;16.70;72.30;17.90;97248.00;;;;4949178;28;20259;-82
2022/04/30 08:53:16;;;;;;;8.83;5.63;;;16.80;72.50;18.30;97253.00;;;;4945882;29;20330;-85
2022/04/30 08:55:45;;;;;;;5.80;4.63;;;16.90;72.80;18.30;97253.00;;;;4946782;29;20204;-82
2022/04/30 08:58:15;;;;;;;11.37;5.30;;;17.00;71.40;18.30;97247.00;;;;4946982;28;20248;-81
2022/04/30 09:00:47;;;;;;;6.13;4.90;;;17.00;70.20;18.70;97253.00;;;;4953324;29;20232;-82
2022/04/30 09:03:18;;;;;;;6.43;3.83;;;17.10;69.60;18.20;97243.00;;;;4953866;29;20246;-82
2022/04/30 09:05:49;;;;;;;5.83;4.73;;;17.10;68.10;18.30;97232.00;;;;4949485;29;20193;-82
2022/04/30 09:08:17;;;;;;;7.40;5.20;;;17.10;66.80;18.60;97237.00;;;;4952976;29;20207;-81
2022/04/30 09:10:48;;;;;;;6.57;4.90;;;17.30;67.50;18.00;97230.00;;;;4945192;28;20223;-82
2022/04/30 09:13:19;;;;;;;7.13;4.47;;;17.30;62.80;19.20;97233.00;;;;4949429;29;20227;-80
2022/04/30 09:15:56;;;;;;;8.03;5.47;;;17.50;65.60;19.10;97220.00;;;;4952264;28;20287;-85
2022/04/30 09:18:24;;;;;;;6.40;3.83;;;17.70;62.60;19.60;97220.00;;;;4954208;29;20200;-81
2022/04/30 09:20:55;;;;;;;5.67;4.27;;;17.90;64.40;20.10;97219.00;;;;4954340;28;20231;-82
2022/04/30 09:23:25;;;;;;;6.10;4.63;;;18.10;64.20;19.40;97216.00;;;;4948402;28;20307;-84
2022/04/30 09:25:56;;;;;;;8.30;4.17;;;18.30;61.80;19.60;97216.00;;;;4942040;28;20264;-85
2022/04/30 09:28:28;;;;;;;8.17;5.03;;;18.40;61.90;20.20;97203.00;;;;4947154;29;20207;-84
2022/04/30 09:31:08;;;;;;;7.10;5.03;;;18.50;62.00;19.60;97211.00;;;;4942369;29;20333;-82
2022/04/30 09:33:38;;;;;;;5.93;4.57;;;18.70;61.00;19.70;97209.00;;;;4943895;29;20196;-82
2022/04/30 09:38:55;;;;;;;5.30;4.27;;;18.80;58.50;20.10;97194.00;;;;4944496;29;20204;-83
2022/04/30 09:41:26;;;;;;;7.47;4.57;;;18.80;57.10;20.90;97201.00;;;;4945202;28;20208;-82
2022/04/30 09:44:04;;;;;;;7.37;5.43;;;19.00;58.70;18.30;97200.00;;;;4944845;28;20208;-83
2022/04/30 09:46:36;;;;;;;6.23;4.97;;;18.80;55.90;18.90;97195.00;;;;4949925;29;20203;-83
2022/04/30 09:54:42;;;;;;;6.87;4.53;;;18.20;55.70;19.60;97179.00;;;;4947392;29;20204;-86
2022/04/30 09:57:14;;;;;;;5.27;4.50;;;18.20;57.50;19.90;97174.00;;;;4953096;28;20306;-82
2022/04/30 09:59:44;;;;;;;6.83;4.37;;;18.40;56.80;19.20;97171.00;;;;4951380;28;20200;-85
2022/04/30 10:02:15;;;;;;;4.43;3.93;;;18.50;55.70;18.20;97152.00;;;;4946425;28;20224;-84
2022/04/30 10:04:46;;;;;;;5.50;3.63;;;18.20;55.00;18.50;97155.00;;;;4945172;28;20200;-84
2022/04/30 10:07:20;;;;;;;7.70;4.30;;;18.10;54.40;19.30;97161.00;;;;4949736;28;20219;-84
2022/04/30 10:09:57;;;;;;;6.17;4.07;;;18.30;54.80;19.90;97158.00;;;;4952629;28;20202;-85
2022/04/30 10:12:31;;;;;;;7.13;4.37;;;18.50;55.70;19.70;97161.00;;;;4947224;28;20294;-81
2022/04/30 10:15:16;;;;;;;5.53;4.57;;;18.70;55.50;20.20;97151.00;;;;4942485;28;20272;-82
2022/04/30 10:17:48;;;;;;;6.93;4.47;;;18.80;55.20;20.70;97152.00;;;;4953112;29;20267;-82
2022/04/30 10:20:29;;;;;;;5.87;4.07;;;19.10;55.40;21.90;97138.00;;;;4942082;28;20231;-81
2022/04/30 10:23:00;;;;;;;5.40;3.40;;;19.60;57.00;22.40;97139.00;;;;4943268;29;20226;-84
2022/04/30 10:25:33;;;;;;;5.93;4.43;;;20.00;56.80;21.80;97135.00;;;;4946860;29;20286;-83
2022/04/30 10:28:06;;;;;;;11.03;3.70;;;20.30;55.90;21.80;97138.00;;;;4947260;29;20259;-83
2022/04/30 10:30:38;;;;;;;6.43;4.33;;;20.50;54.50;22.20;97141.00;;;;4945909;29;20215;-82
2022/04/30 10:33:10;;;;;;;5.83;4.23;;;20.60;54.30;22.60;97132.00;;;;4942153;28;20243;-83
2022/04/30 10:35:42;;;;;;;5.57;3.90;;;20.80;53.70;20.80;97132.00;;;;4947526;28;20196;-82
2022/04/30 10:38:14;;;;;;;7.63;3.83;;;20.80;50.90;22.20;97136.00;;;;4954274;29;20204;-84
2022/04/30 10:40:47;;;;;;;6.07;4.07;;;20.90;53.20;20.60;97117.00;;;;4952293;28;20223;-85
2022/04/30 10:43:19;;;;;;;7.70;4.47;;;20.70;50.60;20.20;97114.00;;;;4949838;28;20227;-82
2022/04/30 10:45:49;;;;;;;7.53;3.53;;;20.40;50.90;20.00;97115.00;;;;4951164;28;20200;-81
2022/04/30 10:48:19;;;;;;;5.00;4.03;;;20.10;51.20;20.90;97120.00;;;;4946943;29;20250;-84
2022/04/30 10:50:51;;;;;;;5.77;3.33;;;20.00;51.20;22.20;97128.00;;;;4951933;28;20230;-83
2022/04/30 10:53:25;;;;;;;4.40;3.97;;;20.20;52.70;22.20;97123.00;;;;4945409;28;20225;-85
2022/04/30 10:55:55;;;;;;;5.73;3.50;;;20.50;51.70;21.80;97094.00;;;;4941770;28;20255;-83
2022/04/30 10:58:24;;;;;;;4.60;3.60;;;20.70;50.60;20.20;97086.00;;;;4946674;28;20235;-83
2022/04/30 11:00:54;;;;;;;4.23;3.27;;;20.00;50.10;20.70;97092.00;;;;4950085;28;20220;-82
2022/04/30 11:03:27;;;;;;;8.23;4.27;;;20.00;51.40;22.10;97100.00;;;;4944170;28;20249;-83
2022/04/30 11:05:56;;;;;;;6.83;3.67;;;20.20;53.10;22.60;97088.00;;;;4942838;29;20210;-83
2022/04/30 11:08:26;;;;;;;3.43;3.13;;;20.70;53.00;22.80;97086.00;;;;4945613;29;20223;-83
2022/04/30 11:10:56;;;;;;;3.87;3.30;;;21.10;52.80;23.30;97088.00;;;;4947242;28;20294;-83
2022/04/30 11:13:25;;;;;;;4.70;3.53;;;21.40;51.90;23.40;97080.00;;;;4940972;29;20252;-85
2022/04/30 11:15:59;;;;;;;4.20;3.17;;;21.70;51.20;22.50;97067.00;;;;4946338;28;20210;-84
2022/04/30 11:18:28;;;;;;;5.93;3.90;;;21.70;48.80;19.20;97099.00;;;;4949003;28;20255;-82
2022/04/30 11:21:01;;;;;;;3.60;3.30;;;20.50;48.70;22.00;97070.00;;;;4951873;29;20229;-85
2022/04/30 11:23:30;;;;;;;6.03;4.40;;;20.50;51.00;23.70;97074.00;;;;4945388;28;20212;-84
2022/04/30 11:25:58;;;;;;;6.27;3.27;;;21.10;52.40;24.40;97076.00;;;;4946942;28;20204;-82
2022/04/30 11:28:30;;;;;;;3.93;3.07;;;21.60;52.50;24.10;97067.00;;;;4948547;28;20196;-83
2022/04/30 11:31:01;;;;;;;4.73;2.83;;;22.10;49.70;23.90;97064.00;;;;4948710;28;20208;-83
2022/04/30 11:33:34;;;;;;;7.20;3.70;;;22.50;49.30;25.40;97061.00;;;;4984215;23;20238;-71
2022/04/30 11:36:03;;;;;;;4.33;2.93;;;22.90;50.90;26.10;97064.00;;;;4966867;28;20746;-72
2022/04/30 11:38:31;;;;;;;3.23;2.93;;;23.40;50.70;26.10;97061.00;;;;4965654;28;20199;-72
2022/04/30 11:41:04;;;;;;;5.13;3.13;;;23.70;49.50;26.20;97053.00;;;;4963616;28;20315;-72
2022/04/30 11:43:33;;;;;;;3.13;2.83;;;24.00;49.00;27.10;97051.00;;;;4968989;28;20704;-70
2022/04/30 11:46:04;;;;;;;4.23;2.60;;;24.40;49.40;27.00;97052.00;;;;4986173;23;20740;-69
2022/04/30 11:48:38;;;;;;;4.67;2.67;;;24.70;48.50;27.20;97042.00;;;;4942801;28;20743;-69
2022/04/30 11:51:10;;;;;;;3.27;2.97;;;25.00;47.10;27.50;97051.00;;;;4951550;29;20205;-70